Wayne, NE

12:08 PM CST on January 26, 2015 (GMT -0600)
Sioux Gateway | Change Station
CLOSE
Current Station
Airport
Location: Sioux City,
Elevation: 1102 ft
Nearby Weather Stations

Elev 1102 ft 42.39 °N, 96.38 °W | Updated 16 minutes ago

Clear
Clear
48 °F
Feels Like 48 °F
N
21
Wind Variable Wind from NW
Gusts 26 mph

Today
High -- | Low -- °F
--% Chance of Precip.
Yesterday
High -- | Low -- °F
Precip. -- in
7:47 AM 5:34 PM
Waxing Crescent, 45% visible
Pressure 29.94 in
Visibility 10.0 miles
Clouds Clear
Dew Point 38 °F
Humidity 68%
Rainfall 0.00 in
Snow Depth Not available.
UV 3 out of 12
Pollen .90 out of 12
Air Quality Not available.
Flu Activity Not available.
METAR KSUX 261752Z 31018G23KT 10SM CLR 09/03 A2992 RMK AO2 SLP138 T00890033 10089 21011 53020

More Conditions Fewer Conditions

Pressure 29.94 in
Visibility 10.0 miles
Clouds Clear
Dew Point 38 °F
Humidity 68%
Rainfall 0.00 in
Snow Depth Not available.
UV 3 out of 12
Pollen .90 out of 12
Air Quality Not available.
Flu Activity Not available.
METAR KSUX 261752Z 31018G23KT 10SM CLR 09/03 A2992 RMK AO2 SLP138 T00890033 10089 21011 53020

More Conditions Fewer Conditions

10-Day Weather Forecast

Almanac

Astronomy

Jan. 26, 2015 Rise Set
Actual Time
Civil Twilight
Nautical Twilight
Astronomical Twilight
Moon
Length of Visible Light
Length of Day
Tomorrow will be .
, % of the Moon is Illuminated

Today's Extremes

State Highs State Lows

Community

WunderPhotos

Upload Photos

1,790,304 photos uploaded!

WunderBlogs® & News

Nearby

Air Quality

  Air Quality AQ Index Pollutant
Not available.

Snow Depth

Station Depth Elevation

Earthquake Activity

City Distance Mag. Time & Date
Minimum magnitude displayed is 2.5.

Coastal Water Temperatures

Place Temperature

Nearby Weather Stations